sensor_id;sensor_type;location;lat;lon;timestamp;temperature;humidity
25108;DHT22;13090;53.422;7.670;2022-11-23T00:03:11;8.60;91.20
25108;DHT22;13090;53.422;7.670;2022-11-23T00:08:15;8.50;91.40
25108;DHT22;13090;53.422;7.670;2022-11-23T00:13:17;8.50;91.50
25108;DHT22;13090;53.422;7.670;2022-11-23T00:18:26;8.50;91.60
25108;DHT22;13090;53.422;7.670;2022-11-23T00:23:28;8.40;91.70
25108;DHT22;13090;53.422;7.670;2022-11-23T00:28:31;8.40;91.90
25108;DHT22;13090;53.422;7.670;2022-11-23T00:33:35;8.40;92.10
25108;DHT22;13090;53.422;7.670;2022-11-23T00:38:37;8.40;92.30
25108;DHT22;13090;53.422;7.670;2022-11-23T00:43:40;8.40;92.30
25108;DHT22;13090;53.422;7.670;2022-11-23T00:48:45;8.50;92.30
25108;DHT22;13090;53.422;7.670;2022-11-23T00:53:49;8.50;92.30
25108;DHT22;13090;53.422;7.670;2022-11-23T00:58:53;8.50;92.30
25108;DHT22;13090;53.422;7.670;2022-11-23T01:03:59;8.60;92.40
25108;DHT22;13090;53.422;7.670;2022-11-23T01:09:04;8.60;92.60
25108;DHT22;13090;53.422;7.670;2022-11-23T01:14:07;8.60;92.60
25108;DHT22;13090;53.422;7.670;2022-11-23T01:19:13;8.70;92.60
25108;DHT22;13090;53.422;7.670;2022-11-23T01:24:18;8.70;92.60
25108;DHT22;13090;53.422;7.670;2022-11-23T01:29:22;8.70;92.70
25108;DHT22;13090;53.422;7.670;2022-11-23T01:34:26;8.80;92.80
25108;DHT22;13090;53.422;7.670;2022-11-23T01:39:28;8.80;92.80
25108;DHT22;13090;53.422;7.670;2022-11-23T01:44:32;8.80;92.80
25108;DHT22;13090;53.422;7.670;2022-11-23T01:49:39;8.90;92.80
25108;DHT22;13090;53.422;7.670;2022-11-23T01:54:45;8.90;92.90
25108;DHT22;13090;53.422;7.670;2022-11-23T01:59:50;9.00;92.80
25108;DHT22;13090;53.422;7.670;2022-11-23T02:04:56;9.00;92.80
25108;DHT22;13090;53.422;7.670;2022-11-23T02:10:01;9.10;92.80
25108;DHT22;13090;53.422;7.670;2022-11-23T02:15:05;9.10;92.80
25108;DHT22;13090;53.422;7.670;2022-11-23T02:20:11;9.20;92.80
25108;DHT22;13090;53.422;7.670;2022-11-23T02:25:21;9.20;92.70
25108;DHT22;13090;53.422;7.670;2022-11-23T02:30:29;9.30;92.70
25108;DHT22;13090;53.422;7.670;2022-11-23T02:35:32;9.30;92.70
25108;DHT22;13090;53.422;7.670;2022-11-23T02:40:35;9.30;92.60
25108;DHT22;13090;53.422;7.670;2022-11-23T02:45:45;9.30;92.60
25108;DHT22;13090;53.422;7.670;2022-11-23T02:50:49;9.40;92.70
25108;DHT22;13090;53.422;7.670;2022-11-23T02:55:51;9.40;92.80
25108;DHT22;13090;53.422;7.670;2022-11-23T03:00:55;9.40;92.80
25108;DHT22;13090;53.422;7.670;2022-11-23T03:05:58;9.40;92.80
25108;DHT22;13090;53.422;7.670;2022-11-23T03:11:00;9.40;92.80
25108;DHT22;13090;53.422;7.670;2022-11-23T03:16:04;9.40;92.80
25108;DHT22;13090;53.422;7.670;2022-11-23T03:21:07;9.40;92.80
25108;DHT22;13090;53.422;7.670;2022-11-23T03:26:10;9.40;92.80
25108;DHT22;13090;53.422;7.670;2022-11-23T03:31:16;9.40;92.80
25108;DHT22;13090;53.422;7.670;2022-11-23T03:36:18;9.40;92.80
25108;DHT22;13090;53.422;7.670;2022-11-23T03:41:20;9.40;92.80
25108;DHT22;13090;53.422;7.670;2022-11-23T03:46:24;9.40;92.90
25108;DHT22;13090;53.422;7.670;2022-11-23T03:51:26;9.40;92.90
25108;DHT22;13090;53.422;7.670;2022-11-23T03:56:29;9.50;92.90
25108;DHT22;13090;53.422;7.670;2022-11-23T04:01:33;9.50;92.90
25108;DHT22;13090;53.422;7.670;2022-11-23T04:06:35;9.50;92.90
25108;DHT22;13090;53.422;7.670;2022-11-23T04:11:37;9.50;92.90
25108;DHT22;13090;53.422;7.670;2022-11-23T04:16:41;9.50;93.30
25108;DHT22;13090;53.422;7.670;2022-11-23T04:21:44;9.60;92.90
25108;DHT22;13090;53.422;7.670;2022-11-23T04:26:46;9.60;92.90
25108;DHT22;13090;53.422;7.670;2022-11-23T04:31:50;9.60;93.00
25108;DHT22;13090;53.422;7.670;2022-11-23T04:36:52;9.60;93.00
25108;DHT22;13090;53.422;7.670;2022-11-23T04:41:55;9.70;93.00
25108;DHT22;13090;53.422;7.670;2022-11-23T04:46:58;9.70;93.00
25108;DHT22;13090;53.422;7.670;2022-11-23T04:52:02;9.80;93.00
25108;DHT22;13090;53.422;7.670;2022-11-23T04:57:04;9.80;93.00
25108;DHT22;13090;53.422;7.670;2022-11-23T05:02:08;9.80;93.40
25108;DHT22;13090;53.422;7.670;2022-11-23T05:07:10;9.90;93.00
25108;DHT22;13090;53.422;7.670;2022-11-23T05:12:13;9.90;93.00
25108;DHT22;13090;53.422;7.670;2022-11-23T05:17:16;9.90;93.00
25108;DHT22;13090;53.422;7.670;2022-11-23T05:22:19;10.00;93.00
25108;DHT22;13090;53.422;7.670;2022-11-23T05:27:21;10.00;92.90
25108;DHT22;13090;53.422;7.670;2022-11-23T05:32:25;10.00;92.90
25108;DHT22;13090;53.422;7.670;2022-11-23T05:37:27;10.00;92.90
25108;DHT22;13090;53.422;7.670;2022-11-23T05:42:29;10.10;92.90
25108;DHT22;13090;53.422;7.670;2022-11-23T05:47:33;10.00;92.90
25108;DHT22;13090;53.422;7.670;2022-11-23T05:52:36;10.10;92.80
25108;DHT22;13090;53.422;7.670;2022-11-23T05:57:38;10.00;92.80
25108;DHT22;13090;53.422;7.670;2022-11-23T06:02:42;10.00;92.80
25108;DHT22;13090;53.422;7.670;2022-11-23T06:07:44;10.00;92.90
25108;DHT22;13090;53.422;7.670;2022-11-23T06:12:46;10.00;92.90
25108;DHT22;13090;53.422;7.670;2022-11-23T06:17:50;10.00;93.00
25108;DHT22;13090;53.422;7.670;2022-11-23T06:22:52;10.10;93.10
25108;DHT22;13090;53.422;7.670;2022-11-23T06:27:56;10.10;93.10
25108;DHT22;13090;53.422;7.670;2022-11-23T06:33:03;10.10;93.10
25108;DHT22;13090;53.422;7.670;2022-11-23T06:38:05;10.20;93.10
25108;DHT22;13090;53.422;7.670;2022-11-23T06:43:07;10.20;93.00
25108;DHT22;13090;53.422;7.670;2022-11-23T06:48:11;10.20;93.00
25108;DHT22;13090;53.422;7.670;2022-11-23T06:53:14;10.20;93.00
25108;DHT22;13090;53.422;7.670;2022-11-23T06:58:16;10.20;93.00
25108;DHT22;13090;53.422;7.670;2022-11-23T07:03:22;10.30;92.90
25108;DHT22;13090;53.422;7.670;2022-11-23T07:08:25;10.30;92.90
25108;DHT22;13090;53.422;7.670;2022-11-23T07:13:28;10.30;92.90
25108;DHT22;13090;53.422;7.670;2022-11-23T07:18:32;10.20;92.90
25108;DHT22;13090;53.422;7.670;2022-11-23T07:23:34;10.30;93.00
25108;DHT22;13090;53.422;7.670;2022-11-23T07:28:37;10.30;93.00
25108;DHT22;13090;53.422;7.670;2022-11-23T07:33:43;10.30;93.00
25108;DHT22;13090;53.422;7.670;2022-11-23T07:38:45;10.30;93.00
25108;DHT22;13090;53.422;7.670;2022-11-23T07:43:47;10.30;93.00
25108;DHT22;13090;53.422;7.670;2022-11-23T07:48:51;10.40;93.10
25108;DHT22;13090;53.422;7.670;2022-11-23T07:53:53;10.40;93.10
25108;DHT22;13090;53.422;7.670;2022-11-23T07:58:56;10.40;93.00
25108;DHT22;13090;53.422;7.670;2022-11-23T08:03:59;10.50;93.00
25108;DHT22;13090;53.422;7.670;2022-11-23T08:09:02;10.60;93.00
25108;DHT22;13090;53.422;7.670;2022-11-23T08:14:04;10.60;93.00
25108;DHT22;13090;53.422;7.670;2022-11-23T08:19:08;10.60;93.00
25108;DHT22;13090;53.422;7.670;2022-11-23T08:24:11;10.70;93.00
25108;DHT22;13090;53.422;7.670;2022-11-23T08:29:14;10.70;92.90
25108;DHT22;13090;53.422;7.670;2022-11-23T08:34:22;10.80;92.80
25108;DHT22;13090;53.422;7.670;2022-11-23T08:39:28;10.80;92.80
25108;DHT22;13090;53.422;7.670;2022-11-23T08:44:31;10.80;92.80
25108;DHT22;13090;53.422;7.670;2022-11-23T08:49:36;10.80;92.80
25108;DHT22;13090;53.422;7.670;2022-11-23T08:54:39;10.90;92.90
25108;DHT22;13090;53.422;7.670;2022-11-23T08:59:41;11.00;93.00
25108;DHT22;13090;53.422;7.670;2022-11-23T09:04:45;11.00;92.80
25108;DHT22;13090;53.422;7.670;2022-11-23T09:09:48;11.10;92.80
25108;DHT22;13090;53.422;7.670;2022-11-23T09:14:51;11.10;92.70
25108;DHT22;13090;53.422;7.670;2022-11-23T09:19:55;11.20;92.60
25108;DHT22;13090;53.422;7.670;2022-11-23T09:24:57;11.20;92.60
25108;DHT22;13090;53.422;7.670;2022-11-23T09:30:00;11.20;92.60
25108;DHT22;13090;53.422;7.670;2022-11-23T09:35:04;11.20;92.60
25108;DHT22;13090;53.422;7.670;2022-11-23T09:40:09;11.20;92.60
25108;DHT22;13090;53.422;7.670;2022-11-23T09:45:21;11.20;92.60
25108;DHT22;13090;53.422;7.670;2022-11-23T09:50:33;11.30;92.80
25108;DHT22;13090;53.422;7.670;2022-11-23T09:55:41;11.30;92.60
25108;DHT22;13090;53.422;7.670;2022-11-23T10:00:49;11.40;92.50
25108;DHT22;13090;53.422;7.670;2022-11-23T10:06:01;11.40;92.50
25108;DHT22;13090;53.422;7.670;2022-11-23T10:11:25;11.50;92.40
25108;DHT22;13090;53.422;7.670;2022-11-23T10:16:38;11.50;92.40
25108;DHT22;13090;53.422;7.670;2022-11-23T10:21:51;11.60;92.50
25108;DHT22;13090;53.422;7.670;2022-11-23T10:26:56;11.60;92.50
25108;DHT22;13090;53.422;7.670;2022-11-23T10:31:59;11.70;92.50
25108;DHT22;13090;53.422;7.670;2022-11-23T10:37:08;11.80;92.40
25108;DHT22;13090;53.422;7.670;2022-11-23T10:42:19;11.90;92.20
25108;DHT22;13090;53.422;7.670;2022-11-23T10:47:34;12.00;92.10
25108;DHT22;13090;53.422;7.670;2022-11-23T10:52:49;12.00;91.90
25108;DHT22;13090;53.422;7.670;2022-11-23T10:57:52;12.00;91.80
25108;DHT22;13090;53.422;7.670;2022-11-23T11:02:55;12.00;91.90
25108;DHT22;13090;53.422;7.670;2022-11-23T11:08:01;11.90;91.80
25108;DHT22;13090;53.422;7.670;2022-11-23T11:13:24;11.90;91.70
25108;DHT22;13090;53.422;7.670;2022-11-23T11:18:29;11.90;91.60
25108;DHT22;13090;53.422;7.670;2022-11-23T11:23:38;11.90;91.70
25108;DHT22;13090;53.422;7.670;2022-11-23T11:28:42;11.80;91.60
25108;DHT22;13090;53.422;7.670;2022-11-23T11:33:52;11.80;91.70
25108;DHT22;13090;53.422;7.670;2022-11-23T11:39:02;11.80;91.70
25108;DHT22;13090;53.422;7.670;2022-11-23T11:44:22;11.80;91.70
25108;DHT22;13090;53.422;7.670;2022-11-23T11:49:29;11.80;91.60
25108;DHT22;13090;53.422;7.670;2022-11-23T11:54:41;11.80;91.50
25108;DHT22;13090;53.422;7.670;2022-11-23T11:59:48;11.80;91.50
25108;DHT22;13090;53.422;7.670;2022-11-23T12:04:59;11.70;91.50
25108;DHT22;13090;53.422;7.670;2022-11-23T12:10:11;11.60;91.40
25108;DHT22;13090;53.422;7.670;2022-11-23T12:15:18;11.50;91.60
25108;DHT22;13090;53.422;7.670;2022-11-23T12:20:50;11.50;91.80
25108;DHT22;13090;53.422;7.670;2022-11-23T12:26:12;11.50;92.20
25108;DHT22;13090;53.422;7.670;2022-11-23T12:31:29;11.50;92.00
25108;DHT22;13090;53.422;7.670;2022-11-23T12:36:47;11.70;92.50
25108;DHT22;13090;53.422;7.670;2022-11-23T12:42:00;11.90;92.70
25108;DHT22;13090;53.422;7.670;2022-11-23T12:47:09;12.30;92.20
25108;DHT22;13090;53.422;7.670;2022-11-23T12:52:34;12.40;91.40
25108;DHT22;13090;53.422;7.670;2022-11-23T12:57:45;12.50;91.10
25108;DHT22;13090;53.422;7.670;2022-11-23T13:03:19;12.50;91.10
25108;DHT22;13090;53.422;7.670;2022-11-23T13:09:06;12.50;91.40
25108;DHT22;13090;53.422;7.670;2022-11-23T13:14:23;12.70;91.00
25108;DHT22;13090;53.422;7.670;2022-11-23T13:19:52;13.00;91.50
25108;DHT22;13090;53.422;7.670;2022-11-23T13:25:21;13.20;90.80
25108;DHT22;13090;53.422;7.670;2022-11-23T13:30:28;13.50;90.60
25108;DHT22;13090;53.422;7.670;2022-11-23T13:35:55;13.60;91.00
25108;DHT22;13090;53.422;7.670;2022-11-23T13:46:25;13.90;90.10
25108;DHT22;13090;53.422;7.670;2022-11-23T13:51:29;13.90;89.60
25108;DHT22;13090;53.422;7.670;2022-11-23T13:56:35;13.90;88.50
25108;DHT22;13090;53.422;7.670;2022-11-23T14:07:19;13.70;86.80
25108;DHT22;13090;53.422;7.670;2022-11-23T14:12:30;13.60;87.40
25108;DHT22;13090;53.422;7.670;2022-11-23T14:18:00;13.50;87.20
25108;DHT22;13090;53.422;7.670;2022-11-23T14:23:24;13.30;86.50
25108;DHT22;13090;53.422;7.670;2022-11-23T14:28:40;13.10;86.50
25108;DHT22;13090;53.422;7.670;2022-11-23T14:33:51;12.90;86.80
25108;DHT22;13090;53.422;7.670;2022-11-23T14:39:29;12.70;87.40
25108;DHT22;13090;53.422;7.670;2022-11-23T14:44:34;12.60;87.10
25108;DHT22;13090;53.422;7.670;2022-11-23T14:49:50;12.50;87.90
25108;DHT22;13090;53.422;7.670;2022-11-23T14:54:54;12.30;86.90
25108;DHT22;13090;53.422;7.670;2022-11-23T14:59:58;12.10;87.10
25108;DHT22;13090;53.422;7.670;2022-11-23T15:05:11;12.00;87.90
25108;DHT22;13090;53.422;7.670;2022-11-23T15:10:25;11.80;86.80
25108;DHT22;13090;53.422;7.670;2022-11-23T15:15:30;11.70;87.80
25108;DHT22;13090;53.422;7.670;2022-11-23T15:20:40;11.50;88.20
25108;DHT22;13090;53.422;7.670;2022-11-23T15:25:50;11.40;88.10
25108;DHT22;13090;53.422;7.670;2022-11-23T15:30:53;11.20;88.50
25108;DHT22;13090;53.422;7.670;2022-11-23T15:36:01;11.10;88.80
25108;DHT22;13090;53.422;7.670;2022-11-23T15:41:05;11.00;89.10
25108;DHT22;13090;53.422;7.670;2022-11-23T15:46:09;10.90;90.00
25108;DHT22;13090;53.422;7.670;2022-11-23T15:51:24;10.70;88.70
25108;DHT22;13090;53.422;7.670;2022-11-23T15:56:29;10.70;89.00
25108;DHT22;13090;53.422;7.670;2022-11-23T16:01:32;10.50;89.60
25108;DHT22;13090;53.422;7.670;2022-11-23T16:06:38;10.50;89.80
25108;DHT22;13090;53.422;7.670;2022-11-23T16:11:44;10.40;89.80
25108;DHT22;13090;53.422;7.670;2022-11-23T16:16:57;10.40;89.90
25108;DHT22;13090;53.422;7.670;2022-11-23T16:22:04;10.40;90.00
25108;DHT22;13090;53.422;7.670;2022-11-23T16:27:22;10.40;90.00
25108;DHT22;13090;53.422;7.670;2022-11-23T16:32:35;10.50;89.60
25108;DHT22;13090;53.422;7.670;2022-11-23T16:37:39;10.60;89.90
25108;DHT22;13090;53.422;7.670;2022-11-23T16:42:42;10.70;89.70
25108;DHT22;13090;53.422;7.670;2022-11-23T16:47:51;10.90;89.20
25108;DHT22;13090;53.422;7.670;2022-11-23T16:52:55;10.90;87.90
25108;DHT22;13090;53.422;7.670;2022-11-23T16:57:58;11.00;87.50
25108;DHT22;13090;53.422;7.670;2022-11-23T17:03:01;11.00;86.80
25108;DHT22;13090;53.422;7.670;2022-11-23T17:08:05;11.00;86.40
25108;DHT22;13090;53.422;7.670;2022-11-23T17:13:11;10.90;86.30
25108;DHT22;13090;53.422;7.670;2022-11-23T17:18:16;10.90;85.60
25108;DHT22;13090;53.422;7.670;2022-11-23T17:23:19;10.70;85.80
25108;DHT22;13090;53.422;7.670;2022-11-23T17:28:21;10.60;86.20
25108;DHT22;13090;53.422;7.670;2022-11-23T17:33:24;10.50;86.40
25108;DHT22;13090;53.422;7.670;2022-11-23T17:38:28;10.40;85.70
25108;DHT22;13090;53.422;7.670;2022-11-23T17:43:30;10.30;86.40
25108;DHT22;13090;53.422;7.670;2022-11-23T17:48:32;10.20;86.80
25108;DHT22;13090;53.422;7.670;2022-11-23T17:53:36;10.20;87.20
25108;DHT22;13090;53.422;7.670;2022-11-23T17:58:39;10.20;87.50
25108;DHT22;13090;53.422;7.670;2022-11-23T18:03:41;10.20;87.40
25108;DHT22;13090;53.422;7.670;2022-11-23T18:08:46;10.30;87.10
25108;DHT22;13090;53.422;7.670;2022-11-23T18:13:49;10.40;87.10
25108;DHT22;13090;53.422;7.670;2022-11-23T18:18:52;10.50;87.10
25108;DHT22;13090;53.422;7.670;2022-11-23T18:23:55;10.60;86.80
25108;DHT22;13090;53.422;7.670;2022-11-23T18:29:05;10.60;86.70
25108;DHT22;13090;53.422;7.670;2022-11-23T18:34:08;10.70;86.40
25108;DHT22;13090;53.422;7.670;2022-11-23T18:39:12;10.70;86.30
25108;DHT22;13090;53.422;7.670;2022-11-23T18:44:14;10.70;86.00
25108;DHT22;13090;53.422;7.670;2022-11-23T18:49:16;10.80;86.00
25108;DHT22;13090;53.422;7.670;2022-11-23T18:54:20;10.80;86.10
25108;DHT22;13090;53.422;7.670;2022-11-23T18:59:22;10.80;86.10
25108;DHT22;13090;53.422;7.670;2022-11-23T19:04:45;10.80;85.90
25108;DHT22;13090;53.422;7.670;2022-11-23T19:09:48;10.70;86.00
25108;DHT22;13090;53.422;7.670;2022-11-23T19:14:51;10.70;86.10
25108;DHT22;13090;53.422;7.670;2022-11-23T19:19:53;10.60;86.10
25108;DHT22;13090;53.422;7.670;2022-11-23T19:24:57;10.60;86.40
25108;DHT22;13090;53.422;7.670;2022-11-23T19:30:00;10.50;87.40
25108;DHT22;13090;53.422;7.670;2022-11-23T19:35:02;10.40;86.80
25108;DHT22;13090;53.422;7.670;2022-11-23T19:40:07;10.30;87.30
25108;DHT22;13090;53.422;7.670;2022-11-23T19:45:10;10.20;87.90
25108;DHT22;13090;53.422;7.670;2022-11-23T19:50:12;10.00;88.30
25108;DHT22;13090;53.422;7.670;2022-11-23T19:55:16;10.00;88.90
25108;DHT22;13090;53.422;7.670;2022-11-23T20:00:19;9.80;89.40
25108;DHT22;13090;53.422;7.670;2022-11-23T20:05:22;9.80;89.80
25108;DHT22;13090;53.422;7.670;2022-11-23T20:10:26;9.70;90.00
25108;DHT22;13090;53.422;7.670;2022-11-23T20:15:28;9.70;90.30
25108;DHT22;13090;53.422;7.670;2022-11-23T20:20:31;9.60;90.40
25108;DHT22;13090;53.422;7.670;2022-11-23T20:25:36;9.60;90.50
25108;DHT22;13090;53.422;7.670;2022-11-23T20:30:40;9.60;90.60
25108;DHT22;13090;53.422;7.670;2022-11-23T20:35:42;9.60;90.70
25108;DHT22;13090;53.422;7.670;2022-11-23T20:40:46;9.60;90.80
25108;DHT22;13090;53.422;7.670;2022-11-23T20:45:48;9.60;91.00
25108;DHT22;13090;53.422;7.670;2022-11-23T20:50:51;9.50;91.00
25108;DHT22;13090;53.422;7.670;2022-11-23T20:56:02;9.50;91.10
25108;DHT22;13090;53.422;7.670;2022-11-23T21:01:08;9.50;91.20
25108;DHT22;13090;53.422;7.670;2022-11-23T21:06:11;9.50;91.30
25108;DHT22;13090;53.422;7.670;2022-11-23T21:11:18;9.50;91.40
25108;DHT22;13090;53.422;7.670;2022-11-23T21:16:20;9.50;91.40
25108;DHT22;13090;53.422;7.670;2022-11-23T21:21:25;9.60;91.50
25108;DHT22;13090;53.422;7.670;2022-11-23T21:26:29;9.60;91.50
25108;DHT22;13090;53.422;7.670;2022-11-23T21:31:32;9.70;91.50
25108;DHT22;13090;53.422;7.670;2022-11-23T21:36:35;9.70;91.50
25108;DHT22;13090;53.422;7.670;2022-11-23T21:41:40;9.70;91.50
25108;DHT22;13090;53.422;7.670;2022-11-23T21:46:43;9.70;91.50
25108;DHT22;13090;53.422;7.670;2022-11-23T21:51:46;9.80;91.60
25108;DHT22;13090;53.422;7.670;2022-11-23T21:56:49;9.80;91.70
25108;DHT22;13090;53.422;7.670;2022-11-23T22:01:53;9.80;91.60
25108;DHT22;13090;53.422;7.670;2022-11-23T22:06:56;9.90;91.70
25108;DHT22;13090;53.422;7.670;2022-11-23T22:12:00;9.90;91.60
25108;DHT22;13090;53.422;7.670;2022-11-23T22:17:03;9.90;91.50
25108;DHT22;13090;53.422;7.670;2022-11-23T22:22:06;9.80;91.50
25108;DHT22;13090;53.422;7.670;2022-11-23T22:27:10;9.80;91.40
25108;DHT22;13090;53.422;7.670;2022-11-23T22:32:12;9.70;91.40
25108;DHT22;13090;53.422;7.670;2022-11-23T22:37:15;9.60;91.80
25108;DHT22;13090;53.422;7.670;2022-11-23T22:42:19;9.60;91.50
25108;DHT22;13090;53.422;7.670;2022-11-23T22:47:21;9.60;91.50
25108;DHT22;13090;53.422;7.670;2022-11-23T22:52:24;9.50;91.60
25108;DHT22;13090;53.422;7.670;2022-11-23T22:57:28;9.50;91.70
25108;DHT22;13090;53.422;7.670;2022-11-23T23:02:30;9.60;91.80
25108;DHT22;13090;53.422;7.670;2022-11-23T23:07:33;9.60;91.80
25108;DHT22;13090;53.422;7.670;2022-11-23T23:12:37;9.60;91.90
25108;DHT22;13090;53.422;7.670;2022-11-23T23:17:40;9.70;91.90
25108;DHT22;13090;53.422;7.670;2022-11-23T23:22:42;9.70;91.90
25108;DHT22;13090;53.422;7.670;2022-11-23T23:27:46;9.70;91.90
25108;DHT22;13090;53.422;7.670;2022-11-23T23:32:48;9.70;91.80
25108;DHT22;13090;53.422;7.670;2022-11-23T23:37:51;9.70;91.80
25108;DHT22;13090;53.422;7.670;2022-11-23T23:42:56;9.70;91.90
25108;DHT22;13090;53.422;7.670;2022-11-23T23:47:59;9.70;92.00
25108;DHT22;13090;53.422;7.670;2022-11-23T23:53:01;9.70;92.00
25108;DHT22;13090;53.422;7.670;2022-11-23T23:58:05;9.70;92.00
